Terminal Aerodrome Forecast
Issued by NWS

Home | Current Version | Previous Version | Text Only | Print | Product List | Glossary On
Versions: 1 2 3 4 5 6 7 8 9 10 11 12 13 14 15 16 17 18 19 20
450
FTPQ31 PGUM 212327
TAFKWA
TAF
PKWA 212327Z 2200/2224 VRB06KT P6SM VCSH SCT018 SCT045 BKN150
      TEMPO 2200/2204 14015G25KT 3SM SHRA BKN016 OVC030=

USA.gov is the U.S. government's official web portal to all federal, state and local government web resources and services.